sensor_id;sensor_type;location;lat;lon;timestamp;temperature;humidity
64143;DHT22;50437;51.970;5.904;2023-07-13T00:02:15;16.90;99.90
64143;DHT22;50437;51.970;5.904;2023-07-13T00:04:41;16.80;99.90
64143;DHT22;50437;51.970;5.904;2023-07-13T00:07:07;16.80;99.90
64143;DHT22;50437;51.970;5.904;2023-07-13T00:09:34;16.80;99.90
64143;DHT22;50437;51.970;5.904;2023-07-13T00:12:00;16.80;99.90
64143;DHT22;50437;51.970;5.904;2023-07-13T00:14:27;16.70;99.90
64143;DHT22;50437;51.970;5.904;2023-07-13T00:16:54;16.70;99.90
64143;DHT22;50437;51.970;5.904;2023-07-13T00:19:21;16.90;99.90
64143;DHT22;50437;51.970;5.904;2023-07-13T00:21:47;16.80;99.90
64143;DHT22;50437;51.970;5.904;2023-07-13T00:24:14;16.80;99.90
64143;DHT22;50437;51.970;5.904;2023-07-13T00:26:41;16.80;99.90
64143;DHT22;50437;51.970;5.904;2023-07-13T00:29:10;16.90;99.90
64143;DHT22;50437;51.970;5.904;2023-07-13T00:31:36;16.90;99.90
64143;DHT22;50437;51.970;5.904;2023-07-13T00:34:04;16.80;99.90
64143;DHT22;50437;51.970;5.904;2023-07-13T00:36:30;16.80;99.90
64143;DHT22;50437;51.970;5.904;2023-07-13T00:38:57;16.70;99.90
64143;DHT22;50437;51.970;5.904;2023-07-13T00:41:24;16.60;99.90
64143;DHT22;50437;51.970;5.904;2023-07-13T00:43:50;16.60;99.90
64143;DHT22;50437;51.970;5.904;2023-07-13T00:46:22;16.50;99.90
64143;DHT22;50437;51.970;5.904;2023-07-13T00:48:48;16.50;99.90
64143;DHT22;50437;51.970;5.904;2023-07-13T00:51:16;16.50;99.90
64143;DHT22;50437;51.970;5.904;2023-07-13T00:54:03;16.50;99.90
64143;DHT22;50437;51.970;5.904;2023-07-13T00:56:30;16.30;99.90
64143;DHT22;50437;51.970;5.904;2023-07-13T00:59:00;16.40;99.90
64143;DHT22;50437;51.970;5.904;2023-07-13T01:01:27;16.40;99.90
64143;DHT22;50437;51.970;5.904;2023-07-13T01:03:52;16.40;99.90
64143;DHT22;50437;51.970;5.904;2023-07-13T01:06:19;16.40;99.90
64143;DHT22;50437;51.970;5.904;2023-07-13T01:08:45;16.40;99.90
64143;DHT22;50437;51.970;5.904;2023-07-13T01:11:11;16.40;99.90
64143;DHT22;50437;51.970;5.904;2023-07-13T01:13:37;16.30;99.90
64143;DHT22;50437;51.970;5.904;2023-07-13T01:16:05;16.30;99.90
64143;DHT22;50437;51.970;5.904;2023-07-13T01:18:37;16.20;99.90
64143;DHT22;50437;51.970;5.904;2023-07-13T01:21:04;16.20;99.90
64143;DHT22;50437;51.970;5.904;2023-07-13T01:23:31;16.10;99.90
64143;DHT22;50437;51.970;5.904;2023-07-13T01:25:58;16.20;99.90
64143;DHT22;50437;51.970;5.904;2023-07-13T01:28:24;16.10;99.90
64143;DHT22;50437;51.970;5.904;2023-07-13T01:30:53;16.20;99.90
64143;DHT22;50437;51.970;5.904;2023-07-13T01:33:19;16.20;99.90
64143;DHT22;50437;51.970;5.904;2023-07-13T01:35:45;16.10;99.90
64143;DHT22;50437;51.970;5.904;2023-07-13T01:38:14;16.10;99.90
64143;DHT22;50437;51.970;5.904;2023-07-13T01:40:41;16.00;99.90
64143;DHT22;50437;51.970;5.904;2023-07-13T01:43:08;16.10;99.90
64143;DHT22;50437;51.970;5.904;2023-07-13T01:45:33;16.00;99.90
64143;DHT22;50437;51.970;5.904;2023-07-13T01:48:02;16.00;99.90
64143;DHT22;50437;51.970;5.904;2023-07-13T01:50:28;16.00;99.90
64143;DHT22;50437;51.970;5.904;2023-07-13T01:52:54;16.00;99.90
64143;DHT22;50437;51.970;5.904;2023-07-13T01:55:20;15.90;99.90
64143;DHT22;50437;51.970;5.904;2023-07-13T01:57:46;16.00;99.90
64143;DHT22;50437;51.970;5.904;2023-07-13T02:00:13;15.90;99.90
64143;DHT22;50437;51.970;5.904;2023-07-13T02:02:41;15.90;99.90
64143;DHT22;50437;51.970;5.904;2023-07-13T02:05:09;15.90;99.90
64143;DHT22;50437;51.970;5.904;2023-07-13T02:07:35;16.00;99.90
64143;DHT22;50437;51.970;5.904;2023-07-13T02:10:03;16.00;99.90
64143;DHT22;50437;51.970;5.904;2023-07-13T02:12:29;16.00;99.90
64143;DHT22;50437;51.970;5.904;2023-07-13T02:14:55;15.90;99.90
64143;DHT22;50437;51.970;5.904;2023-07-13T02:17:21;15.80;99.90
64143;DHT22;50437;51.970;5.904;2023-07-13T02:19:47;15.80;99.90
64143;DHT22;50437;51.970;5.904;2023-07-13T02:22:13;15.80;99.90
64143;DHT22;50437;51.970;5.904;2023-07-13T02:24:40;15.60;99.90
64143;DHT22;50437;51.970;5.904;2023-07-13T02:27:06;15.60;99.90
64143;DHT22;50437;51.970;5.904;2023-07-13T02:29:32;15.70;99.90
64143;DHT22;50437;51.970;5.904;2023-07-13T02:31:58;15.70;99.90
64143;DHT22;50437;51.970;5.904;2023-07-13T02:34:24;15.70;99.90
64143;DHT22;50437;51.970;5.904;2023-07-13T02:36:50;15.60;99.90
64143;DHT22;50437;51.970;5.904;2023-07-13T02:39:16;15.60;99.90
64143;DHT22;50437;51.970;5.904;2023-07-13T02:41:42;15.50;99.90
64143;DHT22;50437;51.970;5.904;2023-07-13T02:44:08;15.50;99.90
64143;DHT22;50437;51.970;5.904;2023-07-13T02:46:35;15.60;99.90
64143;DHT22;50437;51.970;5.904;2023-07-13T02:49:02;15.50;99.90
64143;DHT22;50437;51.970;5.904;2023-07-13T02:51:28;15.40;99.90
64143;DHT22;50437;51.970;5.904;2023-07-13T02:53:54;15.50;99.90
64143;DHT22;50437;51.970;5.904;2023-07-13T02:56:25;15.50;99.90
64143;DHT22;50437;51.970;5.904;2023-07-13T02:58:51;15.50;99.90
64143;DHT22;50437;51.970;5.904;2023-07-13T03:01:17;15.40;99.90
64143;DHT22;50437;51.970;5.904;2023-07-13T03:03:45;15.40;99.90
64143;DHT22;50437;51.970;5.904;2023-07-13T03:06:12;15.40;99.90
64143;DHT22;50437;51.970;5.904;2023-07-13T03:08:46;15.30;99.90
64143;DHT22;50437;51.970;5.904;2023-07-13T03:11:16;15.30;99.90
64143;DHT22;50437;51.970;5.904;2023-07-13T03:13:44;15.30;99.90
64143;DHT22;50437;51.970;5.904;2023-07-13T03:16:14;15.20;99.90
64143;DHT22;50437;51.970;5.904;2023-07-13T03:18:43;15.20;99.90
64143;DHT22;50437;51.970;5.904;2023-07-13T03:21:11;15.20;99.90
64143;DHT22;50437;51.970;5.904;2023-07-13T03:23:38;15.20;99.90
64143;DHT22;50437;51.970;5.904;2023-07-13T03:26:06;15.20;99.90
64143;DHT22;50437;51.970;5.904;2023-07-13T03:28:33;15.20;99.90
64143;DHT22;50437;51.970;5.904;2023-07-13T03:31:04;15.10;99.90
64143;DHT22;50437;51.970;5.904;2023-07-13T03:33:32;15.20;99.90
64143;DHT22;50437;51.970;5.904;2023-07-13T03:35:58;15.20;99.90
64143;DHT22;50437;51.970;5.904;2023-07-13T03:38:24;15.10;99.90
64143;DHT22;50437;51.970;5.904;2023-07-13T03:40:52;15.20;99.90
64143;DHT22;50437;51.970;5.904;2023-07-13T03:43:18;15.00;99.90
64143;DHT22;50437;51.970;5.904;2023-07-13T03:45:44;15.00;99.90
64143;DHT22;50437;51.970;5.904;2023-07-13T03:48:10;15.00;99.90
64143;DHT22;50437;51.970;5.904;2023-07-13T03:50:36;14.90;99.90
64143;DHT22;50437;51.970;5.904;2023-07-13T03:53:03;15.00;99.90
64143;DHT22;50437;51.970;5.904;2023-07-13T03:55:29;15.00;99.90
64143;DHT22;50437;51.970;5.904;2023-07-13T03:57:59;15.00;99.90
64143;DHT22;50437;51.970;5.904;2023-07-13T04:00:25;15.00;99.90
64143;DHT22;50437;51.970;5.904;2023-07-13T04:02:53;15.00;99.90
64143;DHT22;50437;51.970;5.904;2023-07-13T04:05:19;15.10;99.90
64143;DHT22;50437;51.970;5.904;2023-07-13T04:07:46;15.20;99.90
64143;DHT22;50437;51.970;5.904;2023-07-13T04:10:12;15.10;99.90
64143;DHT22;50437;51.970;5.904;2023-07-13T04:12:38;15.20;99.90
64143;DHT22;50437;51.970;5.904;2023-07-13T04:15:04;15.10;99.90
64143;DHT22;50437;51.970;5.904;2023-07-13T04:17:30;15.00;99.90
64143;DHT22;50437;51.970;5.904;2023-07-13T04:19:56;15.10;99.90
64143;DHT22;50437;51.970;5.904;2023-07-13T04:22:22;15.10;99.90
64143;DHT22;50437;51.970;5.904;2023-07-13T04:24:48;15.20;99.90
64143;DHT22;50437;51.970;5.904;2023-07-13T04:27:13;15.20;99.90
64143;DHT22;50437;51.970;5.904;2023-07-13T04:29:39;15.10;99.90
64143;DHT22;50437;51.970;5.904;2023-07-13T04:32:05;15.30;99.90
64143;DHT22;50437;51.970;5.904;2023-07-13T04:34:32;15.40;99.90
64143;DHT22;50437;51.970;5.904;2023-07-13T04:36:58;15.50;99.90
64143;DHT22;50437;51.970;5.904;2023-07-13T04:39:24;15.60;99.90
64143;DHT22;50437;51.970;5.904;2023-07-13T04:41:50;15.70;99.90
64143;DHT22;50437;51.970;5.904;2023-07-13T04:44:16;15.60;99.90
64143;DHT22;50437;51.970;5.904;2023-07-13T04:46:42;15.70;99.90
64143;DHT22;50437;51.970;5.904;2023-07-13T04:49:08;15.70;99.90
64143;DHT22;50437;51.970;5.904;2023-07-13T04:51:34;15.80;99.90
64143;DHT22;50437;51.970;5.904;2023-07-13T04:54:00;15.90;99.90
64143;DHT22;50437;51.970;5.904;2023-07-13T04:56:26;15.70;99.90
64143;DHT22;50437;51.970;5.904;2023-07-13T04:58:52;15.80;99.90
64143;DHT22;50437;51.970;5.904;2023-07-13T05:01:18;15.80;99.90
64143;DHT22;50437;51.970;5.904;2023-07-13T05:03:45;15.80;99.90
64143;DHT22;50437;51.970;5.904;2023-07-13T05:06:11;15.90;99.90
64143;DHT22;50437;51.970;5.904;2023-07-13T05:08:37;15.90;99.90
64143;DHT22;50437;51.970;5.904;2023-07-13T05:11:04;16.00;99.90
64143;DHT22;50437;51.970;5.904;2023-07-13T05:13:30;16.20;99.90
64143;DHT22;50437;51.970;5.904;2023-07-13T05:15:57;16.30;99.90
64143;DHT22;50437;51.970;5.904;2023-07-13T05:18:23;16.30;99.90
64143;DHT22;50437;51.970;5.904;2023-07-13T05:21:09;16.40;99.90
64143;DHT22;50437;51.970;5.904;2023-07-13T05:23:35;16.20;99.90
64143;DHT22;50437;51.970;5.904;2023-07-13T05:26:02;16.00;99.90
64143;DHT22;50437;51.970;5.904;2023-07-13T05:28:29;16.10;99.90
64143;DHT22;50437;51.970;5.904;2023-07-13T05:30:56;16.10;99.90
64143;DHT22;50437;51.970;5.904;2023-07-13T05:33:22;16.20;99.90
64143;DHT22;50437;51.970;5.904;2023-07-13T05:35:48;16.20;99.90
64143;DHT22;50437;51.970;5.904;2023-07-13T05:38:14;16.40;99.90
64143;DHT22;50437;51.970;5.904;2023-07-13T05:40:42;16.40;99.90
64143;DHT22;50437;51.970;5.904;2023-07-13T05:43:08;16.30;99.90
64143;DHT22;50437;51.970;5.904;2023-07-13T05:45:33;16.40;99.90
64143;DHT22;50437;51.970;5.904;2023-07-13T05:47:59;16.40;99.90
64143;DHT22;50437;51.970;5.904;2023-07-13T05:50:26;16.40;99.90
64143;DHT22;50437;51.970;5.904;2023-07-13T05:52:52;16.50;99.90
64143;DHT22;50437;51.970;5.904;2023-07-13T05:55:18;16.60;99.90
64143;DHT22;50437;51.970;5.904;2023-07-13T05:57:44;16.70;99.90
64143;DHT22;50437;51.970;5.904;2023-07-13T06:00:10;16.60;99.90
64143;DHT22;50437;51.970;5.904;2023-07-13T06:02:40;16.80;99.90
64143;DHT22;50437;51.970;5.904;2023-07-13T06:05:06;17.10;99.90
64143;DHT22;50437;51.970;5.904;2023-07-13T06:07:32;17.10;99.90
64143;DHT22;50437;51.970;5.904;2023-07-13T06:09:58;17.20;99.90
64143;DHT22;50437;51.970;5.904;2023-07-13T06:12:25;17.20;99.90
64143;DHT22;50437;51.970;5.904;2023-07-13T06:14:52;17.40;99.90
64143;DHT22;50437;51.970;5.904;2023-07-13T06:17:18;17.40;99.90
64143;DHT22;50437;51.970;5.904;2023-07-13T06:19:44;17.00;99.90
64143;DHT22;50437;51.970;5.904;2023-07-13T06:22:10;17.50;99.90
64143;DHT22;50437;51.970;5.904;2023-07-13T06:24:36;17.50;99.90
64143;DHT22;50437;51.970;5.904;2023-07-13T06:27:04;17.30;99.90
64143;DHT22;50437;51.970;5.904;2023-07-13T06:29:30;17.30;99.90
64143;DHT22;50437;51.970;5.904;2023-07-13T06:31:57;17.30;99.90
64143;DHT22;50437;51.970;5.904;2023-07-13T06:34:23;17.70;99.90
64143;DHT22;50437;51.970;5.904;2023-07-13T06:36:49;18.00;99.90
64143;DHT22;50437;51.970;5.904;2023-07-13T06:39:15;17.90;99.90
64143;DHT22;50437;51.970;5.904;2023-07-13T06:41:41;17.90;99.90
64143;DHT22;50437;51.970;5.904;2023-07-13T06:44:10;18.20;99.90
64143;DHT22;50437;51.970;5.904;2023-07-13T06:46:36;18.50;99.90
64143;DHT22;50437;51.970;5.904;2023-07-13T06:49:02;18.80;99.90
64143;DHT22;50437;51.970;5.904;2023-07-13T06:51:28;18.50;99.90
64143;DHT22;50437;51.970;5.904;2023-07-13T06:53:54;18.20;99.90
64143;DHT22;50437;51.970;5.904;2023-07-13T06:56:21;18.20;99.90
64143;DHT22;50437;51.970;5.904;2023-07-13T06:58:47;18.30;99.90
64143;DHT22;50437;51.970;5.904;2023-07-13T07:01:13;18.50;99.90
64143;DHT22;50437;51.970;5.904;2023-07-13T07:03:39;18.10;99.90
64143;DHT22;50437;51.970;5.904;2023-07-13T07:06:16;18.30;99.90
64143;DHT22;50437;51.970;5.904;2023-07-13T07:08:43;18.10;99.90
64143;DHT22;50437;51.970;5.904;2023-07-13T07:11:11;18.20;99.90
64143;DHT22;50437;51.970;5.904;2023-07-13T07:13:38;18.30;99.90
64143;DHT22;50437;51.970;5.904;2023-07-13T07:16:04;18.60;99.90
64143;DHT22;50437;51.970;5.904;2023-07-13T07:18:30;19.10;99.90
64143;DHT22;50437;51.970;5.904;2023-07-13T07:20:56;19.30;99.90
64143;DHT22;50437;51.970;5.904;2023-07-13T07:23:22;19.50;99.90
64143;DHT22;50437;51.970;5.904;2023-07-13T07:25:48;19.40;99.90
64143;DHT22;50437;51.970;5.904;2023-07-13T07:28:15;19.40;99.90
64143;DHT22;50437;51.970;5.904;2023-07-13T07:30:44;19.60;99.90
64143;DHT22;50437;51.970;5.904;2023-07-13T07:33:10;19.70;99.90
64143;DHT22;50437;51.970;5.904;2023-07-13T07:35:36;19.30;99.90
64143;DHT22;50437;51.970;5.904;2023-07-13T07:38:02;19.00;99.90
64143;DHT22;50437;51.970;5.904;2023-07-13T07:40:28;19.50;99.90
64143;DHT22;50437;51.970;5.904;2023-07-13T07:42:54;19.70;99.90
64143;DHT22;50437;51.970;5.904;2023-07-13T07:45:21;20.10;99.90
64143;DHT22;50437;51.970;5.904;2023-07-13T07:47:47;20.90;99.90
64143;DHT22;50437;51.970;5.904;2023-07-13T07:50:13;20.50;99.90
64143;DHT22;50437;51.970;5.904;2023-07-13T07:52:39;20.80;99.90
64143;DHT22;50437;51.970;5.904;2023-07-13T07:55:06;21.10;99.90
64143;DHT22;50437;51.970;5.904;2023-07-13T07:57:32;21.30;99.90
64143;DHT22;50437;51.970;5.904;2023-07-13T07:59:59;20.80;99.90
64143;DHT22;50437;51.970;5.904;2023-07-13T08:02:25;20.60;99.90
64143;DHT22;50437;51.970;5.904;2023-07-13T08:04:54;20.90;99.90
64143;DHT22;50437;51.970;5.904;2023-07-13T08:07:27;20.90;99.90
64143;DHT22;50437;51.970;5.904;2023-07-13T08:09:53;21.90;99.90
64143;DHT22;50437;51.970;5.904;2023-07-13T08:12:20;22.30;99.90
64143;DHT22;50437;51.970;5.904;2023-07-13T08:14:49;21.60;99.90
64143;DHT22;50437;51.970;5.904;2023-07-13T08:17:17;21.70;99.90
64143;DHT22;50437;51.970;5.904;2023-07-13T08:19:43;21.90;99.90
64143;DHT22;50437;51.970;5.904;2023-07-13T08:24:40;21.40;99.90
64143;DHT22;50437;51.970;5.904;2023-07-13T08:27:08;21.60;99.90
64143;DHT22;50437;51.970;5.904;2023-07-13T08:29:34;22.10;99.90
64143;DHT22;50437;51.970;5.904;2023-07-13T08:32:01;22.60;99.90
64143;DHT22;50437;51.970;5.904;2023-07-13T08:34:27;23.50;99.90
64143;DHT22;50437;51.970;5.904;2023-07-13T08:36:53;23.10;99.90
64143;DHT22;50437;51.970;5.904;2023-07-13T08:39:19;23.30;99.90
64143;DHT22;50437;51.970;5.904;2023-07-13T08:41:46;24.70;99.90
64143;DHT22;50437;51.970;5.904;2023-07-13T08:44:20;25.20;99.90
64143;DHT22;50437;51.970;5.904;2023-07-13T08:46:50;24.80;99.90
64143;DHT22;50437;51.970;5.904;2023-07-13T08:49:19;26.40;99.90
64143;DHT22;50437;51.970;5.904;2023-07-13T08:54:28;23.30;99.90
64143;DHT22;50437;51.970;5.904;2023-07-13T08:56:56;22.10;99.90
64143;DHT22;50437;51.970;5.904;2023-07-13T08:59:24;21.60;99.90
64143;DHT22;50437;51.970;5.904;2023-07-13T09:04:38;20.70;99.90
64143;DHT22;50437;51.970;5.904;2023-07-13T09:10:01;23.10;99.90
64143;DHT22;50437;51.970;5.904;2023-07-13T09:12:45;25.40;99.90
64143;DHT22;50437;51.970;5.904;2023-07-13T09:17:51;27.20;99.90
64143;DHT22;50437;51.970;5.904;2023-07-13T09:23:11;26.40;99.90
64143;DHT22;50437;51.970;5.904;2023-07-13T09:25:38;25.00;99.90
64143;DHT22;50437;51.970;5.904;2023-07-13T09:28:12;25.20;99.90
64143;DHT22;50437;51.970;5.904;2023-07-13T09:33:19;23.10;99.90
64143;DHT22;50437;51.970;5.904;2023-07-13T09:35:45;22.60;99.90
64143;DHT22;50437;51.970;5.904;2023-07-13T09:38:16;22.10;99.90
64143;DHT22;50437;51.970;5.904;2023-07-13T09:43:10;21.10;99.90
64143;DHT22;50437;51.970;5.904;2023-07-13T09:45:36;21.00;99.90
64143;DHT22;50437;51.970;5.904;2023-07-13T09:48:07;20.90;99.90
64143;DHT22;50437;51.970;5.904;2023-07-13T09:50:33;21.20;99.90
64143;DHT22;50437;51.970;5.904;2023-07-13T09:53:00;20.90;99.90
64143;DHT22;50437;51.970;5.904;2023-07-13T09:57:56;20.80;99.90
64143;DHT22;50437;51.970;5.904;2023-07-13T10:00:24;21.30;99.90
64143;DHT22;50437;51.970;5.904;2023-07-13T10:03:01;20.90;99.90
64143;DHT22;50437;51.970;5.904;2023-07-13T10:05:36;21.10;99.90
64143;DHT22;50437;51.970;5.904;2023-07-13T10:08:03;21.00;99.90
64143;DHT22;50437;51.970;5.904;2023-07-13T10:10:35;22.20;99.90
64143;DHT22;50437;51.970;5.904;2023-07-13T10:13:04;22.80;99.90
64143;DHT22;50437;51.970;5.904;2023-07-13T10:15:33;22.70;99.90
64143;DHT22;50437;51.970;5.904;2023-07-13T10:18:03;23.30;99.90
64143;DHT22;50437;51.970;5.904;2023-07-13T10:20:32;24.00;99.90
64143;DHT22;50437;51.970;5.904;2023-07-13T10:23:05;24.40;99.90
64143;DHT22;50437;51.970;5.904;2023-07-13T10:25:39;25.00;99.90
64143;DHT22;50437;51.970;5.904;2023-07-13T10:28:25;25.70;99.90
64143;DHT22;50437;51.970;5.904;2023-07-13T10:30:57;26.40;99.90
64143;DHT22;50437;51.970;5.904;2023-07-13T10:33:27;25.40;99.90
64143;DHT22;50437;51.970;5.904;2023-07-13T10:35:55;23.80;99.90
64143;DHT22;50437;51.970;5.904;2023-07-13T10:38:22;23.40;99.90
64143;DHT22;50437;51.970;5.904;2023-07-13T10:43:28;23.00;99.90
64143;DHT22;50437;51.970;5.904;2023-07-13T10:45:57;22.60;99.90
64143;DHT22;50437;51.970;5.904;2023-07-13T10:48:25;22.40;99.90
64143;DHT22;50437;51.970;5.904;2023-07-13T10:50:51;21.20;99.90
64143;DHT22;50437;51.970;5.904;2023-07-13T10:53:28;20.60;99.90
64143;DHT22;50437;51.970;5.904;2023-07-13T10:56:02;20.00;99.90
64143;DHT22;50437;51.970;5.904;2023-07-13T11:03:46;22.20;99.90
64143;DHT22;50437;51.970;5.904;2023-07-13T11:06:16;23.10;99.90
64143;DHT22;50437;51.970;5.904;2023-07-13T11:14:44;24.80;99.90
64143;DHT22;50437;51.970;5.904;2023-07-13T11:19:51;26.40;99.90
64143;DHT22;50437;51.970;5.904;2023-07-13T11:22:25;25.10;99.90
64143;DHT22;50437;51.970;5.904;2023-07-13T11:25:20;25.30;99.90
64143;DHT22;50437;51.970;5.904;2023-07-13T11:27:51;24.00;99.90
64143;DHT22;50437;51.970;5.904;2023-07-13T11:30:30;22.70;99.90
64143;DHT22;50437;51.970;5.904;2023-07-13T11:33:07;22.40;99.90
64143;DHT22;50437;51.970;5.904;2023-07-13T11:35:41;23.10;99.90
64143;DHT22;50437;51.970;5.904;2023-07-13T11:38:14;24.40;99.90
64143;DHT22;50437;51.970;5.904;2023-07-13T11:40:43;25.10;99.90
64143;DHT22;50437;51.970;5.904;2023-07-13T11:43:11;25.30;99.90
64143;DHT22;50437;51.970;5.904;2023-07-13T11:45:38;25.40;99.90
64143;DHT22;50437;51.970;5.904;2023-07-13T11:48:04;25.70;99.90
64143;DHT22;50437;51.970;5.904;2023-07-13T11:50:31;24.90;99.90
64143;DHT22;50437;51.970;5.904;2023-07-13T11:53:00;24.40;99.90
64143;DHT22;50437;51.970;5.904;2023-07-13T11:55:26;24.70;99.90
64143;DHT22;50437;51.970;5.904;2023-07-13T11:57:56;24.50;99.90
64143;DHT22;50437;51.970;5.904;2023-07-13T12:00:25;23.70;99.90
64143;DHT22;50437;51.970;5.904;2023-07-13T12:02:53;22.60;99.90
64143;DHT22;50437;51.970;5.904;2023-07-13T12:05:20;22.20;99.90
64143;DHT22;50437;51.970;5.904;2023-07-13T12:07:46;21.90;99.90
64143;DHT22;50437;51.970;5.904;2023-07-13T12:10:26;22.00;99.90
64143;DHT22;50437;51.970;5.904;2023-07-13T12:13:01;21.70;99.90
64143;DHT22;50437;51.970;5.904;2023-07-13T12:15:47;21.60;99.90
64143;DHT22;50437;51.970;5.904;2023-07-13T12:18:22;22.00;99.90
64143;DHT22;50437;51.970;5.904;2023-07-13T12:20:53;22.90;99.90
64143;DHT22;50437;51.970;5.904;2023-07-13T12:23:31;23.10;99.90
64143;DHT22;50437;51.970;5.904;2023-07-13T12:25:59;22.80;99.90
64143;DHT22;50437;51.970;5.904;2023-07-13T12:28:36;24.00;99.90
64143;DHT22;50437;51.970;5.904;2023-07-13T12:31:07;24.60;99.90
64143;DHT22;50437;51.970;5.904;2023-07-13T12:33:43;25.00;99.90
64143;DHT22;50437;51.970;5.904;2023-07-13T12:36:10;24.80;99.90
64143;DHT22;50437;51.970;5.904;2023-07-13T12:38:39;25.20;99.90
64143;DHT22;50437;51.970;5.904;2023-07-13T12:41:07;25.50;99.90
64143;DHT22;50437;51.970;5.904;2023-07-13T12:43:35;25.10;99.90
64143;DHT22;50437;51.970;5.904;2023-07-13T12:46:04;24.20;99.90
64143;DHT22;50437;51.970;5.904;2023-07-13T12:48:37;23.80;99.90
64143;DHT22;50437;51.970;5.904;2023-07-13T12:51:04;23.70;99.90
64143;DHT22;50437;51.970;5.904;2023-07-13T12:53:30;23.30;99.90
64143;DHT22;50437;51.970;5.904;2023-07-13T12:56:01;23.20;99.90
64143;DHT22;50437;51.970;5.904;2023-07-13T13:00:54;23.20;99.90
64143;DHT22;50437;51.970;5.904;2023-07-13T13:05:46;22.80;99.90
64143;DHT22;50437;51.970;5.904;2023-07-13T13:08:13;22.90;99.90
64143;DHT22;50437;51.970;5.904;2023-07-13T13:10:39;23.10;99.90
64143;DHT22;50437;51.970;5.904;2023-07-13T13:13:05;23.90;99.90
64143;DHT22;50437;51.970;5.904;2023-07-13T13:15:31;24.10;99.90
64143;DHT22;50437;51.970;5.904;2023-07-13T13:17:58;24.00;99.90
64143;DHT22;50437;51.970;5.904;2023-07-13T13:20:25;24.50;99.90
64143;DHT22;50437;51.970;5.904;2023-07-13T13:22:51;24.10;99.90
64143;DHT22;50437;51.970;5.904;2023-07-13T13:25:18;24.50;99.90
64143;DHT22;50437;51.970;5.904;2023-07-13T13:27:44;24.50;99.90
64143;DHT22;50437;51.970;5.904;2023-07-13T13:30:12;24.70;99.90
64143;DHT22;50437;51.970;5.904;2023-07-13T13:32:39;24.30;99.90
64143;DHT22;50437;51.970;5.904;2023-07-13T13:35:05;24.20;99.90
64143;DHT22;50437;51.970;5.904;2023-07-13T13:37:32;24.00;99.90
64143;DHT22;50437;51.970;5.904;2023-07-13T13:39:58;24.20;99.90
64143;DHT22;50437;51.970;5.904;2023-07-13T13:42:24;25.10;99.90
64143;DHT22;50437;51.970;5.904;2023-07-13T13:44:52;24.80;99.90
64143;DHT22;50437;51.970;5.904;2023-07-13T13:47:29;24.30;99.90
64143;DHT22;50437;51.970;5.904;2023-07-13T13:49:56;24.50;99.90
64143;DHT22;50437;51.970;5.904;2023-07-13T13:52:22;25.00;99.90
64143;DHT22;50437;51.970;5.904;2023-07-13T13:54:48;24.70;99.90
64143;DHT22;50437;51.970;5.904;2023-07-13T13:57:14;24.20;99.90
64143;DHT22;50437;51.970;5.904;2023-07-13T13:59:40;23.60;99.90
64143;DHT22;50437;51.970;5.904;2023-07-13T14:02:22;24.00;99.90
64143;DHT22;50437;51.970;5.904;2023-07-13T14:04:50;24.50;99.90
64143;DHT22;50437;51.970;5.904;2023-07-13T14:07:18;24.90;99.90
64143;DHT22;50437;51.970;5.904;2023-07-13T14:09:44;24.40;99.90
64143;DHT22;50437;51.970;5.904;2023-07-13T14:12:10;24.60;99.90
64143;DHT22;50437;51.970;5.904;2023-07-13T14:14:37;24.70;99.90
64143;DHT22;50437;51.970;5.904;2023-07-13T14:17:04;23.90;99.90
64143;DHT22;50437;51.970;5.904;2023-07-13T14:19:30;23.70;99.90
64143;DHT22;50437;51.970;5.904;2023-07-13T14:21:56;24.30;99.90
64143;DHT22;50437;51.970;5.904;2023-07-13T14:24:22;24.70;99.90
64143;DHT22;50437;51.970;5.904;2023-07-13T14:26:48;24.20;99.90
64143;DHT22;50437;51.970;5.904;2023-07-13T14:29:15;24.20;99.90
64143;DHT22;50437;51.970;5.904;2023-07-13T14:31:43;24.10;99.90
64143;DHT22;50437;51.970;5.904;2023-07-13T14:34:10;24.00;99.90
64143;DHT22;50437;51.970;5.904;2023-07-13T14:36:38;24.00;99.90
64143;DHT22;50437;51.970;5.904;2023-07-13T14:39:10;23.50;99.90
64143;DHT22;50437;51.970;5.904;2023-07-13T14:41:37;23.20;99.90
64143;DHT22;50437;51.970;5.904;2023-07-13T14:44:16;23.40;99.90
64143;DHT22;50437;51.970;5.904;2023-07-13T14:46:42;23.40;99.90
64143;DHT22;50437;51.970;5.904;2023-07-13T14:51:38;23.20;99.90
64143;DHT22;50437;51.970;5.904;2023-07-13T14:54:05;23.10;99.90
64143;DHT22;50437;51.970;5.904;2023-07-13T14:56:31;23.30;99.90
64143;DHT22;50437;51.970;5.904;2023-07-13T14:58:57;23.10;99.90
64143;DHT22;50437;51.970;5.904;2023-07-13T15:01:23;22.70;99.90
64143;DHT22;50437;51.970;5.904;2023-07-13T15:03:50;22.90;99.90
64143;DHT22;50437;51.970;5.904;2023-07-13T15:06:16;23.00;99.90
64143;DHT22;50437;51.970;5.904;2023-07-13T15:08:42;22.80;99.90
64143;DHT22;50437;51.970;5.904;2023-07-13T15:11:09;23.10;99.90
64143;DHT22;50437;51.970;5.904;2023-07-13T15:13:39;23.10;99.90
64143;DHT22;50437;51.970;5.904;2023-07-13T15:16:10;22.90;99.90
64143;DHT22;50437;51.970;5.904;2023-07-13T15:18:39;23.00;99.90
64143;DHT22;50437;51.970;5.904;2023-07-13T15:21:08;23.00;99.90
64143;DHT22;50437;51.970;5.904;2023-07-13T15:23:34;22.60;99.90
64143;DHT22;50437;51.970;5.904;2023-07-13T15:26:00;22.60;99.90
64143;DHT22;50437;51.970;5.904;2023-07-13T15:28:26;22.60;99.90
64143;DHT22;50437;51.970;5.904;2023-07-13T15:30:52;22.40;99.90
64143;DHT22;50437;51.970;5.904;2023-07-13T15:33:28;22.50;99.90
64143;DHT22;50437;51.970;5.904;2023-07-13T15:35:55;22.60;99.90
64143;DHT22;50437;51.970;5.904;2023-07-13T15:38:27;22.60;99.90
64143;DHT22;50437;51.970;5.904;2023-07-13T15:40:53;22.40;99.90
64143;DHT22;50437;51.970;5.904;2023-07-13T15:43:20;22.40;99.90
64143;DHT22;50437;51.970;5.904;2023-07-13T15:45:47;22.40;99.90
64143;DHT22;50437;51.970;5.904;2023-07-13T15:48:15;22.30;99.90
64143;DHT22;50437;51.970;5.904;2023-07-13T15:50:44;22.50;99.90
64143;DHT22;50437;51.970;5.904;2023-07-13T15:53:10;22.50;99.90
64143;DHT22;50437;51.970;5.904;2023-07-13T15:55:39;22.40;99.90
64143;DHT22;50437;51.970;5.904;2023-07-13T15:58:08;22.50;99.90
64143;DHT22;50437;51.970;5.904;2023-07-13T16:00:35;22.50;99.90
64143;DHT22;50437;51.970;5.904;2023-07-13T16:03:01;22.60;99.90
64143;DHT22;50437;51.970;5.904;2023-07-13T16:05:27;22.60;99.90
64143;DHT22;50437;51.970;5.904;2023-07-13T16:07:53;22.90;99.90
64143;DHT22;50437;51.970;5.904;2023-07-13T16:10:21;23.10;99.90
64143;DHT22;50437;51.970;5.904;2023-07-13T16:12:48;23.10;99.90
64143;DHT22;50437;51.970;5.904;2023-07-13T16:15:15;23.10;99.90
64143;DHT22;50437;51.970;5.904;2023-07-13T16:17:42;23.30;99.90
64143;DHT22;50437;51.970;5.904;2023-07-13T16:20:08;23.00;99.90
64143;DHT22;50437;51.970;5.904;2023-07-13T16:22:38;22.80;99.90